TimeEDT,TemperatureF,Dew PointF,Humidity,Sea Level PressureIn,VisibilityMPH,Wind Direction,Wind SpeedMPH,Gust SpeedMPH,PrecipitationIn,Events,Conditions,WindDirDegrees,DateUTC
12:56 AM,75.9,72.0,87,30.15,10.0,WNW,3.5,-,N/A,,Clear,300,2013-07-16 04:56:00
1:56 AM,75.0,70.0,84,30.14,10.0,North,6.9,-,N/A,,Clear,350,2013-07-16 05:56:00
2:56 AM,75.0,68.0,79,30.14,10.0,NW,6.9,-,N/A,,Clear,320,2013-07-16 06:56:00
3:56 AM,73.9,66.9,79,30.14,10.0,NW,9.2,-,N/A,,Clear,320,2013-07-16 07:56:00
4:56 AM,73.0,66.0,79,30.14,10.0,NW,9.2,-,N/A,,Clear,320,2013-07-16 08:56:00
5:56 AM,73.0,64.9,76,30.17,10.0,NW,8.1,-,N/A,,Clear,320,2013-07-16 09:56:00
6:56 AM,75.0,66.0,73,30.18,10.0,NNW,9.2,-,N/A,,Clear,330,2013-07-16 10:56:00
7:56 AM,78.1,66.0,66,30.19,10.0,NNW,13.8,-,N/A,,Clear,340,2013-07-16 11:56:00
8:56 AM,81.0,66.9,62,30.19,10.0,NNW,13.8,20.7,N/A,,Clear,340,2013-07-16 12:56:00
9:56 AM,84.0,66.9,56,30.18,10.0,North,12.7,-,N/A,,Clear,360,2013-07-16 13:56:00
10:56 AM,86.0,68.0,55,30.18,10.0,NNW,10.4,-,N/A,,Clear,330,2013-07-16 14:56:00
11:56 AM,88.0,66.9,49,30.17,10.0,NNW,12.7,-,N/A,,Partly Cloudy,340,2013-07-16 15:56:00
12:56 PM,89.1,66.0,46,30.16,10.0,NNW,11.5,-,N/A,,Clear,340,2013-07-16 16:56:00
1:56 PM,89.1,64.9,45,30.15,10.0,NNW,12.7,-,N/A,,Partly Cloudy,330,2013-07-16 17:56:00
2:56 PM,89.1,64.0,43,30.15,10.0,North,11.5,18.4,N/A,,Partly Cloudy,350,2013-07-16 18:56:00
3:56 PM,90.0,63.0,40,30.14,10.0,NNW,15.0,-,N/A,,Partly Cloudy,330,2013-07-16 19:56:00
4:56 PM,91.0,63.0,39,30.14,10.0,North,9.2,-,N/A,,Partly Cloudy,360,2013-07-16 20:56:00
5:56 PM,89.1,63.0,42,30.12,10.0,North,11.5,-,N/A,,Partly Cloudy,350,2013-07-16 21:56:00
6:56 PM,88.0,63.0,43,30.13,10.0,North,8.1,-,N/A,,Clear,10,2013-07-16 22:56:00
7:56 PM,84.0,64.0,51,30.14,10.0,North,5.8,-,N/A,,Clear,350,2013-07-16 23:56:00
8:56 PM,80.1,68.0,67,30.14,10.0,NW,4.6,-,N/A,,Partly Cloudy,310,2013-07-17 00:56:00
9:56 PM,79.0,69.1,72,30.16,10.0,NW,5.8,-,N/A,,Scattered Clouds,310,2013-07-17 01:56:00
10:56 PM,78.1,70.0,76,30.16,10.0,WNW,4.6,-,N/A,,Overcast,300,2013-07-17 02:56:00
11:56 PM,77.0,70.0,79,30.16,10.0,NW,4.6,-,N/A,,Clear,310,2013-07-17 03:56:00